createdAt,value
2023-04-12T00:00:12.572Z,99369.69
2023-04-12T00:02:42.368Z,99370.13
2023-04-12T00:05:11.514Z,99366.81
2023-04-12T00:07:41.102Z,99367.44
2023-04-12T00:10:09.568Z,99363.72
2023-04-12T00:12:36.610Z,99369.06
2023-04-12T00:15:04.130Z,99364.38
2023-04-12T00:17:32.262Z,99364.78
2023-04-12T00:19:59.337Z,99360.03
2023-04-12T00:22:26.823Z,99356.34
2023-04-12T00:24:56.359Z,99359.00
2023-04-12T00:27:23.400Z,99368.06
2023-04-12T00:29:50.358Z,99362.72
2023-04-12T00:32:17.391Z,99361.50
2023-04-12T00:34:44.268Z,99367.03
2023-04-12T00:56:41.506Z,99356.66
2023-04-12T00:59:08.744Z,99356.66
2023-04-12T01:01:35.604Z,99351.94
2023-04-12T01:04:04.968Z,99355.84
2023-04-12T01:06:41.031Z,99355.63
2023-04-12T01:09:30.466Z,99354.59
2023-04-12T01:12:05.272Z,99353.81
2023-04-12T01:15:08.340Z,99348.84
2023-04-12T01:17:54.823Z,99346.38
2023-04-12T01:20:26.149Z,99345.75
2023-04-12T01:23:15.876Z,99342.03
2023-04-12T01:26:08.298Z,99337.47
2023-04-12T01:28:42.392Z,99335.56
2023-04-12T01:31:10.664Z,99338.03
2023-04-12T01:33:39.081Z,99343.56
2023-04-12T01:36:16.138Z,99339.44
2023-04-12T01:38:48.041Z,99335.06
2023-04-12T01:41:15.234Z,99338.13
2023-04-12T01:43:46.281Z,99336.09
2023-04-12T01:46:17.332Z,99329.06
2023-04-12T01:48:51.101Z,99334.38
2023-04-12T01:51:34.791Z,99325.50
2023-04-12T01:54:12.234Z,99332.09
2023-04-12T01:56:45.041Z,99326.53
2023-04-12T01:59:14.863Z,99324.25
2023-04-12T02:01:44.074Z,99329.78
2023-04-12T02:04:11.818Z,99332.28
2023-04-12T02:06:39.889Z,99327.28
2023-04-12T02:09:09.904Z,99326.25
2023-04-12T02:11:36.893Z,99326.66
2023-04-12T02:14:06.634Z,99323.75
2023-04-12T02:16:34.871Z,99320.91
2023-04-12T02:19:02.231Z,99323.16
2023-04-12T02:21:33.787Z,99321.41
2023-04-12T02:24:04.633Z,99326.13
2023-04-12T02:26:31.707Z,99319.38
2023-04-12T02:28:58.660Z,99310.53
2023-04-12T02:34:33.531Z,99305.38
2023-04-12T02:37:18.960Z,99328.56
2023-04-12T02:39:52.584Z,99319.69
2023-04-12T02:42:20.750Z,99329.28
2023-04-12T02:44:49.106Z,99319.78
2023-04-12T02:47:16.412Z,99328.22
2023-04-12T02:49:47.155Z,99324.09
2023-04-12T02:52:17.155Z,99319.56
2023-04-12T02:55:05.996Z,99327.00
2023-04-12T02:57:33.526Z,99325.59
2023-04-12T03:00:01.896Z,99323.16
2023-04-12T03:02:45.180Z,99318.81
2023-04-12T03:05:23.413Z,99328.72
2023-04-12T03:07:53.796Z,99332.41
2023-04-12T03:10:26.510Z,99328.28
2023-04-12T03:13:02.517Z,99317.41
2023-04-12T03:15:34.096Z,99333.28
2023-04-12T03:18:02.036Z,99334.78
2023-04-12T03:20:33.719Z,99332.56
2023-04-12T03:23:08.796Z,99322.31
2023-04-12T03:25:39.151Z,99327.06
2023-04-12T03:28:45.965Z,99334.75
2023-04-12T03:31:13.451Z,99331.69
2023-04-12T03:33:43.253Z,99330.31
2023-04-12T03:36:23.215Z,99345.16
2023-04-12T03:39:00.138Z,99346.19
2023-04-12T03:41:32.962Z,99336.50
2023-04-12T03:44:03.982Z,99347.22
2023-04-12T03:46:35.863Z,99347.88
2023-04-12T03:49:07.670Z,99336.53
2023-04-12T03:51:35.925Z,99336.53
2023-04-12T03:54:09.181Z,99348.06
2023-04-12T03:56:46.119Z,99341.66
2023-04-12T03:59:23.479Z,99348.28
2023-04-12T04:01:51.038Z,99355.47
2023-04-12T04:04:23.060Z,99356.72
2023-04-12T04:06:55.572Z,99357.97
2023-04-12T04:09:23.613Z,99360.81
2023-04-12T04:11:52.292Z,99366.38
2023-04-12T04:14:21.643Z,99364.06
2023-04-12T04:16:54.224Z,99369.63
2023-04-12T04:19:28.351Z,99369.81
2023-04-12T04:21:56.487Z,99361.53
2023-04-12T04:24:26.209Z,99357.75
2023-04-12T04:26:58.963Z,99358.31
2023-04-12T04:29:28.751Z,99359.22
2023-04-12T04:31:58.038Z,99354.44
2023-04-12T04:34:26.423Z,99364.31
2023-04-12T04:37:01.027Z,99352.91
2023-04-12T04:39:29.466Z,99367.50
2023-04-12T04:45:24.711Z,99356.97
2023-04-12T04:47:54.047Z,99352.53
2023-04-12T04:50:25.569Z,99364.44
2023-04-12T04:52:53.575Z,99366.88
2023-04-12T04:55:23.482Z,99368.41
2023-04-12T04:57:55.708Z,99355.88
2023-04-12T05:00:25.979Z,99357.38
2023-04-12T05:02:56.865Z,99352.91
2023-04-12T05:05:31.582Z,99367.31
2023-04-12T05:08:05.757Z,99359.31
2023-04-12T05:10:37.808Z,99367.19
2023-04-12T05:13:10.367Z,99364.91
2023-04-12T05:15:40.715Z,99356.63
2023-04-12T05:18:08.039Z,99365.38
2023-04-12T05:20:35.115Z,99357.28
2023-04-12T05:23:02.540Z,99369.38
2023-04-12T05:25:29.712Z,99357.31
2023-04-12T05:28:04.841Z,99365.19
2023-04-12T05:30:32.906Z,99362.66
2023-04-12T05:33:05.489Z,99351.28
2023-04-12T05:35:34.115Z,99364.53
2023-04-12T05:38:01.228Z,99363.13
2023-04-12T05:40:28.558Z,99367.22
2023-04-12T05:42:59.401Z,99366.28
2023-04-12T05:45:30.135Z,99361.91
2023-04-12T05:47:59.625Z,99361.31
2023-04-12T05:50:26.945Z,99351.09
2023-04-12T05:52:55.261Z,99361.94
2023-04-12T05:55:28.248Z,99362.16
2023-04-12T05:57:55.520Z,99357.19
2023-04-12T06:00:23.589Z,99380.50
2023-04-12T06:02:56.945Z,99362.78
2023-04-12T06:05:42.802Z,99379.16
2023-04-12T06:08:10.460Z,99366.44
2023-04-12T06:10:37.542Z,99368.63
2023-04-12T06:13:04.954Z,99372.00
2023-04-12T06:15:33.738Z,99369.47
2023-04-12T06:18:03.604Z,99371.59
2023-04-12T06:20:30.858Z,99375.53
2023-04-12T06:22:58.102Z,99367.91
2023-04-12T06:25:26.088Z,99372.03
2023-04-12T06:27:58.080Z,99360.22
2023-04-12T06:30:28.134Z,99358.31
2023-04-12T06:32:55.356Z,99354.81
2023-04-12T06:35:25.623Z,99362.88
2023-04-12T06:37:52.863Z,99356.06
2023-04-12T06:40:19.861Z,99347.59
2023-04-12T06:42:47.001Z,99349.22
2023-04-12T06:45:23.340Z,99352.31
2023-04-12T06:47:50.613Z,99352.22
2023-04-12T06:50:18.669Z,99352.00
2023-04-12T06:52:47.144Z,99349.25
2023-04-12T06:55:14.794Z,99361.41
2023-04-12T06:57:43.252Z,99339.13
2023-04-12T07:00:14.026Z,99341.38
2023-04-12T07:02:41.389Z,99347.78
2023-04-12T07:05:09.877Z,99330.94
2023-04-12T07:07:40.098Z,99353.91
2023-04-12T07:10:07.786Z,99338.88
2023-04-12T07:12:34.758Z,99347.00
2023-04-12T07:15:02.795Z,99333.59
2023-04-12T07:17:30.383Z,99332.91
2023-04-12T07:20:25.787Z,99341.88
2023-04-12T07:22:52.620Z,99345.22
2023-04-12T07:25:19.545Z,99344.22
2023-04-12T07:27:46.605Z,99350.56
2023-04-12T07:30:13.874Z,99350.03
2023-04-12T07:32:41.025Z,99344.53
2023-04-12T07:35:08.621Z,99344.94
2023-04-12T07:37:36.055Z,99351.22
2023-04-12T07:40:12.931Z,99345.75
2023-04-12T07:42:45.409Z,99350.13
2023-04-12T07:45:12.648Z,99330.84
2023-04-12T07:47:39.736Z,99325.16
2023-04-12T07:50:09.527Z,99329.88
2023-04-12T07:52:42.247Z,99330.47
2023-04-12T07:55:10.322Z,99332.69
2023-04-12T07:57:38.089Z,99337.31
2023-04-12T08:00:06.119Z,99334.59
2023-04-12T08:02:43.134Z,99316.84
2023-04-12T08:05:10.655Z,99322.78
2023-04-12T08:07:37.757Z,99313.50
2023-04-12T08:10:05.077Z,99316.53
2023-04-12T08:12:32.053Z,99315.16
2023-04-12T08:15:03.604Z,99309.34
2023-04-12T08:17:30.956Z,99316.09
2023-04-12T08:19:57.863Z,99306.00
2023-04-12T08:22:25.245Z,99315.13
2023-04-12T08:24:52.835Z,99298.16
2023-04-12T08:27:20.295Z,99297.94
2023-04-12T08:29:47.389Z,99299.59
2023-04-12T08:32:14.419Z,99290.47
2023-04-12T08:34:42.064Z,99307.91
2023-04-12T08:37:10.873Z,99286.44
2023-04-12T08:39:37.844Z,99289.38
2023-04-12T08:42:10.837Z,99294.75
2023-04-12T08:44:39.817Z,99302.94
2023-04-12T08:47:10.904Z,99301.50
2023-04-12T08:49:38.496Z,99283.00
2023-04-12T08:52:07.274Z,99290.06
2023-04-12T08:54:34.827Z,99288.97
2023-04-12T08:57:04.723Z,99276.28
2023-04-12T08:59:33.193Z,99285.66
2023-04-12T09:02:00.841Z,99294.44
2023-04-12T09:04:28.042Z,99281.09
2023-04-12T09:06:55.421Z,99286.75
2023-04-12T09:09:43.392Z,99280.53
2023-04-12T09:12:11.412Z,99271.06
2023-04-12T09:14:39.525Z,99281.06
2023-04-12T09:17:25.088Z,99280.09
2023-04-12T09:19:53.401Z,99276.88
2023-04-12T09:22:33.332Z,99268.03
2023-04-12T09:25:01.036Z,99272.50
2023-04-12T09:27:29.996Z,99261.66
2023-04-12T09:30:13.198Z,99260.34
2023-04-12T09:32:40.332Z,99260.25
2023-04-12T09:35:07.887Z,99246.84
2023-04-12T09:37:35.331Z,99255.59
2023-04-12T09:40:04.690Z,99247.66
2023-04-12T09:42:35.102Z,99246.72
2023-04-12T09:45:24.624Z,99249.59
2023-04-12T09:47:54.846Z,99246.19
2023-04-12T09:50:28.624Z,99244.06
2023-04-12T09:52:56.922Z,99238.38
2023-04-12T09:55:26.368Z,99238.25
2023-04-12T09:57:55.574Z,99238.19
2023-04-12T10:00:25.532Z,99230.38
2023-04-12T10:02:54.667Z,99238.28
2023-04-12T10:05:28.271Z,99227.47
2023-04-12T10:07:58.609Z,99236.13
2023-04-12T10:10:33.869Z,99243.84
2023-04-12T10:13:19.396Z,99230.44
2023-04-12T10:15:53.317Z,99216.44
2023-04-12T10:18:24.230Z,99225.59
2023-04-12T10:20:51.551Z,99212.41
2023-04-12T10:23:24.570Z,99208.47
2023-04-12T10:25:55.620Z,99212.00
2023-04-12T10:28:23.634Z,99201.16
2023-04-12T10:30:57.486Z,99206.16
2023-04-12T10:33:31.848Z,99206.28
2023-04-12T10:36:08.937Z,99216.84
2023-04-12T10:39:09.843Z,99198.88
2023-04-12T10:41:37.668Z,99211.31
2023-04-12T10:44:26.319Z,99198.75
2023-04-12T10:46:53.490Z,99189.75
2023-04-12T10:49:39.471Z,99184.19
2023-04-12T10:52:14.191Z,99180.41
2023-04-12T10:54:41.783Z,99179.47
2023-04-12T10:57:44.177Z,99173.34
2023-04-12T11:00:11.734Z,99169.50
2023-04-12T11:03:06.367Z,99154.97
2023-04-12T11:06:20.027Z,99162.19
2023-04-12T11:09:42.133Z,99158.59
2023-04-12T11:12:15.543Z,99149.16
2023-04-12T11:14:50.106Z,99143.00
2023-04-12T11:17:21.741Z,99132.88
2023-04-12T11:20:00.553Z,99127.31
2023-04-12T11:22:30.265Z,99136.28
2023-04-12T11:25:01.868Z,99129.50
2023-04-12T11:27:32.030Z,99130.56
2023-04-12T11:29:59.991Z,99127.41
2023-04-12T11:32:29.542Z,99131.56
2023-04-12T11:34:58.067Z,99136.59
2023-04-12T11:37:32.383Z,99134.31
2023-04-12T11:40:00.516Z,99124.78
2023-04-12T11:42:30.429Z,99108.75
2023-04-12T11:45:02.516Z,99117.06
2023-04-12T11:47:36.321Z,99117.44
2023-04-12T11:50:03.934Z,99118.59
2023-04-12T11:52:32.608Z,99126.56
2023-04-12T11:55:11.348Z,99123.00
2023-04-12T11:57:39.669Z,99116.59
2023-04-12T12:00:10.273Z,99132.84
2023-04-12T12:02:46.577Z,99111.38
2023-04-12T12:05:20.434Z,99108.53
2023-04-12T12:07:47.779Z,99106.38
2023-04-12T12:10:32.547Z,99105.75
2023-04-12T12:13:12.968Z,99091.69
2023-04-12T12:15:44.789Z,99098.47
2023-04-12T12:18:12.135Z,99094.72
2023-04-12T12:20:52.576Z,99083.44
2023-04-12T12:23:32.433Z,99082.00
2023-04-12T12:26:18.392Z,99092.69
2023-04-12T12:28:56.535Z,99083.06
2023-04-12T12:31:45.651Z,99079.47
2023-04-12T12:34:14.251Z,99072.44
2023-04-12T12:36:41.399Z,99071.34
2023-04-12T12:39:11.020Z,99065.84
2023-04-12T12:41:43.276Z,99071.22
2023-04-12T12:44:11.612Z,99068.94
2023-04-12T12:46:53.465Z,99045.41
2023-04-12T12:49:20.991Z,99061.16
2023-04-12T12:51:48.158Z,99057.25
2023-04-12T12:54:31.761Z,99050.31
2023-04-12T12:57:32.083Z,99050.44
2023-04-12T12:59:59.042Z,99037.06
2023-04-12T13:02:26.395Z,99041.19
2023-04-12T13:04:57.646Z,99042.28
2023-04-12T13:07:24.788Z,99025.78
2023-04-12T13:09:51.792Z,99032.72
2023-04-12T13:12:21.474Z,99030.31
2023-04-12T13:14:48.939Z,99030.44
2023-04-12T13:17:18.967Z,99025.31
2023-04-12T13:19:47.006Z,99039.91
2023-04-12T13:22:17.155Z,99025.31
2023-04-12T13:24:44.167Z,99038.31
2023-04-12T13:27:12.727Z,99032.38
2023-04-12T13:29:43.430Z,99030.50
2023-04-12T13:32:10.556Z,99025.00
2023-04-12T13:34:37.888Z,99027.91
2023-04-12T13:37:04.877Z,99021.63
2023-04-12T13:39:33.774Z,99018.56
2023-04-12T13:42:02.443Z,99021.00
2023-04-12T13:44:36.877Z,99022.25
2023-04-12T13:47:04.729Z,99017.41
2023-04-12T13:49:31.687Z,99017.09
2023-04-12T13:52:02.952Z,99017.91
2023-04-12T13:54:31.035Z,99019.00
2023-04-12T13:56:58.549Z,99013.53
2023-04-12T13:59:28.517Z,99009.69
2023-04-12T14:01:56.250Z,99008.81
2023-04-12T14:04:23.379Z,99015.91
2023-04-12T14:06:50.362Z,99016.41
2023-04-12T14:09:34.558Z,99014.22
2023-04-12T14:12:03.970Z,99012.38
2023-04-12T14:14:33.587Z,99014.41
2023-04-12T14:17:02.154Z,99021.81
2023-04-12T14:19:29.714Z,99017.97
2023-04-12T14:21:57.029Z,99021.81
2023-04-12T14:24:26.867Z,99017.06
2023-04-12T14:26:54.550Z,99008.41
2023-04-12T14:29:21.421Z,99012.03
2023-04-12T14:31:48.852Z,99026.53
2023-04-12T14:34:15.887Z,99021.03
2023-04-12T14:36:42.948Z,99029.53
2023-04-12T14:39:13.896Z,99005.53
2023-04-12T14:41:42.199Z,99008.81
2023-04-12T14:44:09.099Z,99015.63
2023-04-12T14:46:36.513Z,99015.44
2023-04-12T14:49:03.456Z,99009.69
2023-04-12T14:51:30.556Z,99013.06
2023-04-12T14:54:00.417Z,98999.16
2023-04-12T14:56:30.509Z,99007.13
2023-04-12T14:58:58.285Z,99013.25
2023-04-12T15:01:25.792Z,99008.00
2023-04-12T15:03:56.201Z,99001.06
2023-04-12T15:06:26.143Z,99010.00
2023-04-12T15:08:57.696Z,99007.25
2023-04-12T15:11:27.478Z,99011.13
2023-04-12T15:13:55.448Z,99011.88
2023-04-12T15:16:23.719Z,98999.59
2023-04-12T15:18:51.512Z,99004.56
2023-04-12T15:21:18.867Z,98988.47
2023-04-12T15:23:46.226Z,99000.72
2023-04-12T15:26:14.511Z,98996.53
2023-04-12T15:28:42.508Z,98980.09
2023-04-12T15:31:12.111Z,99003.59
2023-04-12T15:33:39.249Z,98986.69
2023-04-12T15:36:06.700Z,98986.72
2023-04-12T15:38:43.343Z,99000.59
2023-04-12T15:41:13.773Z,98990.50
2023-04-12T15:43:42.264Z,98989.38
2023-04-12T15:46:11.843Z,98978.97
2023-04-12T15:48:39.017Z,98989.72
2023-04-12T15:51:14.297Z,98987.25
2023-04-12T15:53:43.548Z,98996.25
2023-04-12T15:56:18.396Z,98984.72
2023-04-12T15:58:46.196Z,98988.34
2023-04-12T16:01:13.261Z,98975.41
2023-04-12T16:03:41.962Z,98985.00
2023-04-12T16:06:09.256Z,98985.13
2023-04-12T16:08:36.286Z,98990.66
2023-04-12T16:11:06.318Z,98982.63
2023-04-12T16:13:33.386Z,98986.44
2023-04-12T16:16:00.628Z,98989.78
2023-04-12T16:18:30.998Z,98988.19
2023-04-12T16:20:58.422Z,98991.78
2023-04-12T16:23:25.497Z,98976.56
2023-04-12T16:25:52.706Z,98990.97
2023-04-12T16:28:20.789Z,98980.44
2023-04-12T16:30:49.697Z,98972.59
2023-04-12T16:33:17.058Z,98988.09
2023-04-12T16:36:04.685Z,98987.28
2023-04-12T16:38:33.041Z,98986.22
2023-04-12T16:41:00.207Z,98986.78
2023-04-12T16:43:27.618Z,98994.38
2023-04-12T16:45:55.729Z,98988.97
2023-04-12T16:48:26.337Z,98986.25
2023-04-12T16:50:55.256Z,98982.44
2023-04-12T16:53:22.426Z,98980.47
2023-04-12T16:55:49.467Z,98988.63
2023-04-12T16:58:22.551Z,99001.41
2023-04-12T17:00:59.112Z,98982.13
2023-04-12T17:03:27.005Z,98997.59
2023-04-12T17:06:03.263Z,98996.50
2023-04-12T17:08:32.094Z,98995.38
2023-04-12T17:11:01.663Z,98990.22
2023-04-12T17:13:30.344Z,98999.97
2023-04-12T17:16:00.366Z,99011.63
2023-04-12T17:18:27.430Z,99013.75
2023-04-12T17:20:56.180Z,99003.19
2023-04-12T17:23:24.921Z,99011.31
2023-04-12T17:25:54.745Z,99003.41
2023-04-12T17:28:21.897Z,99012.59
2023-04-12T17:30:49.356Z,99007.13
2023-04-12T17:33:18.317Z,99002.16
2023-04-12T17:38:37.518Z,99011.03
2023-04-12T17:41:04.964Z,99022.97
2023-04-12T17:43:33.345Z,99016.03
2023-04-12T17:46:03.809Z,99020.91
2023-04-12T17:48:31.606Z,99016.00
2023-04-12T17:50:59.965Z,99019.81
2023-04-12T17:53:29.466Z,99024.09
2023-04-12T17:55:59.880Z,99026.22
2023-04-12T17:58:45.633Z,99037.03
2023-04-12T18:01:14.455Z,99030.38
2023-04-12T18:03:41.964Z,99030.66
2023-04-12T18:06:46.293Z,99026.31
2023-04-12T18:09:13.894Z,99034.63
2023-04-12T18:11:43.376Z,99032.41
2023-04-12T18:14:13.858Z,99024.31
2023-04-12T18:16:41.412Z,99027.50
2023-04-12T18:19:30.146Z,99012.25
2023-04-12T18:21:58.967Z,99014.16
2023-04-12T18:24:26.579Z,99028.50
2023-04-12T18:26:54.867Z,99033.91
2023-04-12T18:29:22.017Z,99031.16
2023-04-12T18:31:49.026Z,99026.88
2023-04-12T18:34:29.155Z,99037.03
2023-04-12T18:37:04.132Z,99033.06
2023-04-12T18:39:37.616Z,99027.44
2023-04-12T18:42:06.521Z,99031.25
2023-04-12T18:44:34.762Z,99034.66
2023-04-12T18:47:01.938Z,99040.34
2023-04-12T18:49:47.511Z,99033.84
2023-04-12T18:52:17.384Z,99019.91
2023-04-12T18:54:44.492Z,99038.16
2023-04-12T18:57:18.768Z,99030.44
2023-04-12T18:59:49.151Z,99049.59
2023-04-12T19:02:21.233Z,99050.28
2023-04-12T19:04:51.524Z,99041.94
2023-04-12T19:07:18.896Z,99039.72
2023-04-12T19:09:47.181Z,99023.31
2023-04-12T19:12:14.338Z,99034.25
2023-04-12T19:14:42.586Z,99036.22
2023-04-12T19:17:10.778Z,99019.94
2023-04-12T19:19:38.027Z,99010.03
2023-04-12T19:22:07.685Z,99014.59
2023-04-12T19:24:54.484Z,99030.09
2023-04-12T19:27:22.973Z,99027.53
2023-04-12T19:29:51.761Z,99020.44
2023-04-12T19:32:19.438Z,99018.72
2023-04-12T19:34:53.955Z,99012.69
2023-04-12T19:37:21.722Z,99024.03
2023-04-12T19:39:50.512Z,99022.56
2023-04-12T19:42:17.796Z,99010.00
2023-04-12T19:44:44.895Z,99015.13
2023-04-12T19:47:11.943Z,99000.59
2023-04-12T19:49:39.359Z,99019.41
2023-04-12T19:52:27.036Z,99015.94
2023-04-12T19:54:56.993Z,99006.78
2023-04-12T19:57:25.112Z,99012.19
2023-04-12T19:59:52.658Z,99012.69
2023-04-12T20:02:20.373Z,99018.16
2023-04-12T20:04:49.506Z,99019.06
2023-04-12T20:07:16.706Z,99018.72
2023-04-12T20:09:48.458Z,99017.03
2023-04-12T20:12:16.758Z,99021.66
2023-04-12T20:14:46.875Z,99017.97
2023-04-12T20:17:16.654Z,99018.19
2023-04-12T20:19:43.513Z,99025.47
2023-04-12T20:22:10.671Z,99015.50
2023-04-12T20:24:40.387Z,99023.25
2023-04-12T20:27:09.853Z,99014.56
2023-04-12T20:29:36.961Z,99017.75
2023-04-12T20:32:04.508Z,99015.53
2023-04-12T20:34:34.639Z,99010.59
2023-04-12T20:37:02.172Z,99011.44
2023-04-12T20:39:29.654Z,99011.69
2023-04-12T20:42:01.137Z,99008.59
2023-04-12T20:44:28.562Z,99023.25
2023-04-12T20:46:55.591Z,99011.88
2023-04-12T20:49:22.556Z,99005.31
2023-04-12T20:51:50.985Z,99015.06
2023-04-12T20:54:20.030Z,99002.63
2023-04-12T20:56:46.983Z,99007.19
2023-04-12T20:59:14.333Z,99004.75
2023-04-12T21:01:43.322Z,99005.88
2023-04-12T21:04:33.311Z,99006.06
2023-04-12T21:07:07.836Z,99010.38
2023-04-12T21:09:35.483Z,99005.63
2023-04-12T21:12:06.200Z,99008.88
2023-04-12T21:14:36.135Z,99013.69
2023-04-12T21:17:07.412Z,99014.88
2023-04-12T21:19:42.018Z,99004.16
2023-04-12T21:22:09.243Z,99013.75
2023-04-12T21:24:38.628Z,99001.78
2023-04-12T21:27:09.272Z,99008.22
2023-04-12T21:29:41.343Z,99004.97
2023-04-12T21:32:12.266Z,99013.63
2023-04-12T21:34:45.916Z,99008.34
2023-04-12T21:37:15.930Z,99017.25
2023-04-12T21:39:44.793Z,99016.09
2023-04-12T21:42:11.760Z,99008.97
2023-04-12T21:44:42.069Z,99018.06
2023-04-12T21:47:09.245Z,99012.78
2023-04-12T21:49:36.169Z,99008.31
2023-04-12T21:52:08.299Z,99021.56
2023-04-12T21:54:37.164Z,99009.88
2023-04-12T21:57:04.890Z,99012.44
2023-04-12T21:59:31.745Z,99011.03
2023-04-12T22:01:58.720Z,99013.72
2023-04-12T22:04:25.771Z,99013.19
2023-04-12T22:06:53.025Z,99009.09
2023-04-12T22:09:23.523Z,99009.53
2023-04-12T22:11:50.497Z,99001.34
2023-04-12T22:14:17.388Z,99005.22
2023-04-12T22:16:45.334Z,99009.69
2023-04-12T22:19:13.097Z,99003.50
2023-04-12T22:21:40.274Z,99007.72
2023-04-12T22:24:08.411Z,99007.13
2023-04-12T22:26:35.567Z,99000.81
2023-04-12T22:29:03.128Z,98995.09
2023-04-12T22:31:48.544Z,98992.97
2023-04-12T22:34:35.144Z,98994.41
2023-04-12T22:37:03.574Z,98988.34
2023-04-12T22:39:51.573Z,98989.50
2023-04-12T22:42:20.909Z,98989.38
2023-04-12T22:44:49.912Z,98990.66
2023-04-12T22:47:35.859Z,98999.94
2023-04-12T22:50:08.326Z,98991.50
2023-04-12T22:52:47.825Z,98990.13
2023-04-12T22:55:33.490Z,98987.41
2023-04-12T22:58:01.782Z,98994.81
2023-04-12T23:00:30.519Z,98993.88
2023-04-12T23:03:34.502Z,98992.47
2023-04-12T23:06:02.134Z,98988.03
2023-04-12T23:08:29.473Z,98985.47
2023-04-12T23:11:02.301Z,98991.09
2023-04-12T23:13:35.837Z,98987.94
2023-04-12T23:16:06.551Z,98981.50
2023-04-12T23:18:33.742Z,98984.88
2023-04-12T23:21:04.292Z,98982.31
2023-04-12T23:23:37.367Z,98974.94
2023-04-12T23:26:04.427Z,98983.13
2023-04-12T23:28:31.370Z,98981.84
2023-04-12T23:31:01.731Z,98977.41
2023-04-12T23:33:29.266Z,98973.41
2023-04-12T23:35:56.290Z,98969.44
2023-04-12T23:38:26.173Z,98974.44
2023-04-12T23:41:12.908Z,98975.25
2023-04-12T23:43:40.009Z,98978.06
2023-04-12T23:46:07.119Z,98971.25
2023-04-12T23:48:35.205Z,98973.34
2023-04-12T23:51:02.183Z,98962.66
2023-04-12T23:53:47.734Z,98968.66
2023-04-12T23:56:16.091Z,98967.38
2023-04-12T23:58:43.039Z,98967.97
